AFR1830 LFPG-LIMC
Flight info
| Callsign | AFR1830 |
|---|---|
| Flight time | 1h 16m |
| Altitude | 35000 |
| Route | OKASI DCT OKEKO DCT MOU DCT MADIV DCT MOKIP DCT TUFTA DCT GEVEA/N0444F290 DCT MOBLO DCT LURAG DCT TOP/N0376F190 M135 ASTIG |
| Aircraft | E75L/M-SDE3GILORVW/S |
Departure
| Time | 2026-05-09 06:17 |
|---|---|
| Airport | Charles de Gaulle International Airport (LFPG) |
Arrival
| Time | 2026-05-09 07:33 |
|---|---|
| Airport | Milan Malpensa International Airport (LIMC) |
| Time | Latitude | Longitude | Altitude | Speed | Heading |
|---|---|---|---|---|---|
| 2026-05-09 05:42 | 49.00406 | 2.59855 | 351 ft | 0 kts | 266° |
| 2026-05-09 05:51 | 49.00408 | 2.59877 | 358 ft | 3 kts | 255° |
| 2026-05-09 05:51 | 49.00415 | 2.59903 | 351 ft | 3 kts | 223° |
| 2026-05-09 05:52 | 49.00430 | 2.59917 | 355 ft | 3 kts | 185° |
| 2026-05-09 05:52 | 49.00440 | 2.59917 | 358 ft | 0 kts | 175° |
| 2026-05-09 05:58 | 49.00429 | 2.59919 | 357 ft | 3 kts | 174° |
| 2026-05-09 05:58 | 49.00395 | 2.59922 | 351 ft | 6 kts | 176° |
| 2026-05-09 05:59 | 49.00340 | 2.59928 | 356 ft | 9 kts | 175° |
| 2026-05-09 05:59 | 49.00297 | 2.59920 | 354 ft | 6 kts | 224° |
| 2026-05-09 05:59 | 49.00285 | 2.59848 | 351 ft | 9 kts | 265° |
| 2026-05-09 05:59 | 49.00279 | 2.59739 | 351 ft | 12 kts | 265° |
| 2026-05-09 06:00 | 49.00284 | 2.59628 | 353 ft | 9 kts | 315° |
| 2026-05-09 06:00 | 49.00351 | 2.59607 | 351 ft | 11 kts | 356° |
| 2026-05-09 06:00 | 49.00435 | 2.59597 | 358 ft | 13 kts | 356° |
| 2026-05-09 06:00 | 49.00534 | 2.59585 | 354 ft | 16 kts | 355° |
| 2026-05-09 06:01 | 49.00652 | 2.59570 | 353 ft | 18 kts | 355° |
| 2026-05-09 06:01 | 49.00787 | 2.59553 | 355 ft | 20 kts | 355° |
| 2026-05-09 06:01 | 49.00859 | 2.59544 | 352 ft | 5 kts | 355° |
| 2026-05-09 06:01 | 49.00901 | 2.59539 | 353 ft | 7 kts | 355° |
| 2026-05-09 06:02 | 49.00966 | 2.59530 | 353 ft | 11 kts | 348° |
| 2026-05-09 06:02 | 49.01002 | 2.59437 | 354 ft | 13 kts | 266° |
| 2026-05-09 06:02 | 49.00995 | 2.59290 | 356 ft | 16 kts | 265° |
| 2026-05-09 06:02 | 49.00983 | 2.59100 | 353 ft | 20 kts | 263° |
| 2026-05-09 06:03 | 49.00951 | 2.58887 | 355 ft | 22 kts | 263° |
| 2026-05-09 06:03 | 49.00940 | 2.58704 | 353 ft | 17 kts | 266° |
| 2026-05-09 06:03 | 49.00930 | 2.58509 | 354 ft | 20 kts | 265° |
| 2026-05-09 06:03 | 49.00922 | 2.58324 | 353 ft | 13 kts | 275° |
| 2026-05-09 06:04 | 49.00986 | 2.58231 | 353 ft | 15 kts | 352° |
| 2026-05-09 06:04 | 49.01094 | 2.58217 | 353 ft | 17 kts | 356° |
| 2026-05-09 06:04 | 49.01220 | 2.58202 | 353 ft | 20 kts | 355° |
| 2026-05-09 06:04 | 49.01336 | 2.58184 | 353 ft | 0 kts | 352° |
| 2026-05-09 06:05 | 49.01344 | 2.58183 | 355 ft | 4 kts | 355° |
| 2026-05-09 06:05 | 49.01394 | 2.58177 | 355 ft | 11 kts | 355° |
| 2026-05-09 06:05 | 49.01496 | 2.58163 | 355 ft | 18 kts | 354° |
| 2026-05-09 06:06 | 49.01624 | 2.58148 | 357 ft | 19 kts | 356° |
| 2026-05-09 06:06 | 49.01755 | 2.58133 | 361 ft | 17 kts | 355° |
| 2026-05-09 06:06 | 49.01880 | 2.58110 | 353 ft | 19 kts | 345° |
| 2026-05-09 06:06 | 49.02000 | 2.58019 | 353 ft | 20 kts | 317° |
| 2026-05-09 06:07 | 49.02065 | 2.57884 | 357 ft | 16 kts | 294° |
| 2026-05-09 06:07 | 49.02089 | 2.57706 | 353 ft | 18 kts | 268° |
| 2026-05-09 06:07 | 49.02080 | 2.57501 | 353 ft | 21 kts | 266° |
| 2026-05-09 06:07 | 49.02067 | 2.57259 | 353 ft | 25 kts | 265° |
| 2026-05-09 06:08 | 49.02053 | 2.56982 | 353 ft | 27 kts | 265° |
| 2026-05-09 06:08 | 49.02037 | 2.56688 | 353 ft | 29 kts | 265° |
| 2026-05-09 06:08 | 49.02025 | 2.56458 | 353 ft | 20 kts | 267° |
| 2026-05-09 06:08 | 49.01973 | 2.56311 | 355 ft | 14 kts | 209° |
| 2026-05-09 06:09 | 49.01921 | 2.56187 | 353 ft | 16 kts | 264° |
| 2026-05-09 06:09 | 49.01980 | 2.56104 | 353 ft | 14 kts | 351° |
| 2026-05-09 06:09 | 49.02070 | 2.56060 | 355 ft | 12 kts | 324° |
| 2026-05-09 06:09 | 49.02087 | 2.55936 | 353 ft | 14 kts | 265° |
| 2026-05-09 06:10 | 49.02078 | 2.55764 | 355 ft | 18 kts | 265° |
| 2026-05-09 06:10 | 49.02066 | 2.55547 | 353 ft | 22 kts | 265° |
| 2026-05-09 06:10 | 49.02053 | 2.55293 | 353 ft | 25 kts | 266° |
| 2026-05-09 06:10 | 49.02038 | 2.55026 | 353 ft | 26 kts | 265° |
| 2026-05-09 06:11 | 49.02024 | 2.54744 | 353 ft | 27 kts | 265° |
| 2026-05-09 06:11 | 49.02008 | 2.54455 | 352 ft | 20 kts | 264° |
| 2026-05-09 06:11 | 49.01998 | 2.54273 | 354 ft | 18 kts | 265° |
| 2026-05-09 06:11 | 49.01970 | 2.54170 | 352 ft | 16 kts | 224° |
| 2026-05-09 06:12 | 49.01897 | 2.54035 | 357 ft | 18 kts | 259° |
| 2026-05-09 06:12 | 49.01884 | 2.53823 | 352 ft | 22 kts | 264° |
| 2026-05-09 06:12 | 49.01865 | 2.53481 | 352 ft | 27 kts | 265° |
| 2026-05-09 06:12 | 49.01855 | 2.53199 | 352 ft | 26 kts | 267° |
| 2026-05-09 06:13 | 49.01839 | 2.52950 | 352 ft | 24 kts | 263° |
| 2026-05-09 06:13 | 49.01829 | 2.52805 | 357 ft | 15 kts | 264° |
| 2026-05-09 06:13 | 49.01820 | 2.52638 | 352 ft | 17 kts | 265° |
| 2026-05-09 06:13 | 49.01810 | 2.52461 | 352 ft | 15 kts | 265° |
| 2026-05-09 06:14 | 49.01801 | 2.52292 | 355 ft | 17 kts | 265° |
| 2026-05-09 06:14 | 49.01804 | 2.52162 | 360 ft | 11 kts | 302° |
| 2026-05-09 06:14 | 49.01877 | 2.52125 | 352 ft | 13 kts | 354° |
| 2026-05-09 06:14 | 49.01967 | 2.52114 | 352 ft | 10 kts | 355° |
| 2026-05-09 06:15 | 49.01997 | 2.52110 | 352 ft | 0 kts | 356° |
| 2026-05-09 06:15 | 49.02000 | 2.52110 | 352 ft | 2 kts | 356° |
| 2026-05-09 06:16 | 49.02027 | 2.52107 | 352 ft | 6 kts | 356° |
| 2026-05-09 06:16 | 49.02081 | 2.52112 | 351 ft | 9 kts | 13° |
| 2026-05-09 06:16 | 49.02105 | 2.52136 | 355 ft | 1 kts | 55° |
| 2026-05-09 06:16 | 49.02110 | 2.52166 | 352 ft | 5 kts | 86° |
| 2026-05-09 06:17 | 49.02117 | 2.52313 | 351 ft | 36 kts | 86° |
| 2026-05-09 06:17 | 49.02159 | 2.53077 | 353 ft | 107 kts | 84° |
| 2026-05-09 06:17 | 49.02233 | 2.54515 | 423 ft | 157 kts | 84° |
| 2026-05-09 06:17 | 49.02339 | 2.56231 | 1032 ft | 169 kts | 83° |
| 2026-05-09 06:18 | 49.02493 | 2.58073 | 1826 ft | 177 kts | 83° |
| 2026-05-09 06:18 | 49.02552 | 2.60011 | 2816 ft | 193 kts | 90° |
| 2026-05-09 06:18 | 49.02638 | 2.62134 | 3918 ft | 214 kts | 85° |
| 2026-05-09 06:18 | 49.02777 | 2.64371 | 4938 ft | 207 kts | 88° |
| 2026-05-09 06:19 | 49.02877 | 2.66503 | 5938 ft | 204 kts | 88° |
| 2026-05-09 06:19 | 49.02977 | 2.68800 | 6298 ft | 227 kts | 87° |
| 2026-05-09 06:19 | 49.03112 | 2.71233 | 6973 ft | 233 kts | 86° |
| 2026-05-09 06:19 | 49.03262 | 2.73737 | 7538 ft | 244 kts | 86° |
| 2026-05-09 06:20 | 49.03398 | 2.76388 | 7958 ft | 259 kts | 88° |
| 2026-05-09 06:20 | 49.03519 | 2.79204 | 8416 ft | 274 kts | 87° |
| 2026-05-09 06:20 | 49.03685 | 2.82182 | 8826 ft | 289 kts | 86° |
| 2026-05-09 06:20 | 49.03847 | 2.85275 | 9412 ft | 296 kts | 86° |
| 2026-05-09 06:21 | 49.04007 | 2.88440 | 10064 ft | 301 kts | 86° |
| 2026-05-09 06:21 | 49.04172 | 2.91710 | 10386 ft | 317 kts | 86° |
| 2026-05-09 06:21 | 49.04290 | 2.95118 | 10797 ft | 326 kts | 95° |
| 2026-05-09 06:21 | 49.03673 | 2.98412 | 11403 ft | 324 kts | 121° |
| 2026-05-09 06:22 | 49.02216 | 3.00922 | 12049 ft | 321 kts | 147° |
| 2026-05-09 06:22 | 49.00183 | 3.02211 | 12703 ft | 317 kts | 174° |
| 2026-05-09 06:22 | 48.97981 | 3.02007 | 13391 ft | 315 kts | 196° |
| 2026-05-09 06:22 | 48.95915 | 3.00990 | 14043 ft | 317 kts | 202° |
| 2026-05-09 06:23 | 48.93865 | 2.99705 | 14673 ft | 321 kts | 205° |
| 2026-05-09 06:23 | 48.91813 | 2.98315 | 15317 ft | 324 kts | 205° |
| 2026-05-09 06:23 | 48.89748 | 2.96863 | 15973 ft | 328 kts | 207° |
| 2026-05-09 06:23 | 48.87733 | 2.95190 | 16620 ft | 332 kts | 210° |
| 2026-05-09 06:24 | 48.85722 | 2.93432 | 17285 ft | 335 kts | 210° |
| 2026-05-09 06:24 | 48.83694 | 2.91637 | 17971 ft | 339 kts | 210° |
| 2026-05-09 06:24 | 48.81651 | 2.89827 | 18633 ft | 343 kts | 210° |
| 2026-05-09 06:24 | 48.79580 | 2.87993 | 19262 ft | 346 kts | 210° |
| 2026-05-09 06:25 | 48.77486 | 2.86142 | 19910 ft | 350 kts | 210° |
| 2026-05-09 06:25 | 48.75371 | 2.84275 | 20576 ft | 353 kts | 210° |
| 2026-05-09 06:25 | 48.73242 | 2.82396 | 21217 ft | 357 kts | 210° |
| 2026-05-09 06:25 | 48.71085 | 2.80494 | 21842 ft | 360 kts | 209° |
| 2026-05-09 06:26 | 48.68906 | 2.78577 | 22455 ft | 363 kts | 209° |
| 2026-05-09 06:26 | 48.66716 | 2.76649 | 23078 ft | 367 kts | 209° |
| 2026-05-09 06:26 | 48.64519 | 2.74720 | 23676 ft | 370 kts | 209° |
| 2026-05-09 06:26 | 48.62289 | 2.72762 | 24211 ft | 373 kts | 209° |
| 2026-05-09 06:27 | 48.60026 | 2.70778 | 24772 ft | 376 kts | 208° |
| 2026-05-09 06:27 | 48.57759 | 2.68793 | 25361 ft | 379 kts | 208° |
| 2026-05-09 06:27 | 48.55465 | 2.66786 | 25895 ft | 382 kts | 208° |
| 2026-05-09 06:27 | 48.53158 | 2.64770 | 26415 ft | 386 kts | 208° |
| 2026-05-09 06:28 | 48.50752 | 2.62968 | 26882 ft | 387 kts | 199° |
| 2026-05-09 06:28 | 48.48157 | 2.61894 | 27354 ft | 387 kts | 188° |
| 2026-05-09 06:28 | 48.45475 | 2.61465 | 27803 ft | 388 kts | 180° |
| 2026-05-09 06:28 | 48.42767 | 2.61578 | 28254 ft | 390 kts | 176° |
| 2026-05-09 06:29 | 48.40081 | 2.61736 | 28700 ft | 392 kts | 176° |
| 2026-05-09 06:29 | 48.37312 | 2.61937 | 29162 ft | 395 kts | 176° |
| 2026-05-09 06:29 | 48.34565 | 2.62138 | 29618 ft | 397 kts | 175° |
| 2026-05-09 06:29 | 48.31781 | 2.62365 | 29884 ft | 404 kts | 173° |
| 2026-05-09 06:30 | 48.29012 | 2.63171 | 30232 ft | 405 kts | 163° |
| 2026-05-09 06:30 | 48.26372 | 2.64431 | 30672 ft | 404 kts | 160° |
| 2026-05-09 06:30 | 48.23778 | 2.66025 | 31088 ft | 402 kts | 153° |
| 2026-05-09 06:30 | 48.21271 | 2.67885 | 31506 ft | 401 kts | 153° |
| 2026-05-09 06:31 | 48.18782 | 2.69777 | 31915 ft | 400 kts | 152° |
| 2026-05-09 06:31 | 48.16304 | 2.71676 | 32320 ft | 399 kts | 152° |
| 2026-05-09 06:31 | 48.13841 | 2.73564 | 32732 ft | 398 kts | 152° |
| 2026-05-09 06:31 | 48.11384 | 2.75452 | 33149 ft | 397 kts | 152° |
| 2026-05-09 06:32 | 48.08928 | 2.77335 | 33554 ft | 396 kts | 154° |
| 2026-05-09 06:32 | 48.06412 | 2.78991 | 33927 ft | 395 kts | 155° |
| 2026-05-09 06:32 | 48.03889 | 2.80623 | 34244 ft | 395 kts | 156° |
| 2026-05-09 06:33 | 47.98818 | 2.83847 | 34749 ft | 397 kts | 156° |
| 2026-05-09 06:33 | 47.96295 | 2.85448 | 34874 ft | 393 kts | 156° |
| 2026-05-09 06:33 | 47.93758 | 2.87057 | 34940 ft | 397 kts | 157° |
| 2026-05-09 06:34 | 47.86076 | 2.91921 | 34982 ft | 403 kts | 157° |
| 2026-05-09 06:34 | 47.80904 | 2.95189 | 34987 ft | 403 kts | 157° |
| 2026-05-09 06:35 | 47.75736 | 2.98447 | 34981 ft | 404 kts | 157° |
| 2026-05-09 06:35 | 47.70547 | 3.01711 | 34981 ft | 404 kts | 157° |
| 2026-05-09 06:36 | 47.65388 | 3.04948 | 34982 ft | 405 kts | 157° |
| 2026-05-09 06:36 | 47.60208 | 3.08193 | 34984 ft | 405 kts | 157° |
| 2026-05-09 06:37 | 47.55006 | 3.11446 | 34986 ft | 406 kts | 158° |
| 2026-05-09 06:37 | 47.49790 | 3.14697 | 34983 ft | 406 kts | 158° |
| 2026-05-09 06:38 | 47.44571 | 3.17943 | 34986 ft | 404 kts | 158° |
| 2026-05-09 06:38 | 47.39385 | 3.21161 | 34984 ft | 408 kts | 158° |
| 2026-05-09 06:39 | 47.34163 | 3.24396 | 34991 ft | 408 kts | 158° |
| 2026-05-09 06:39 | 47.28916 | 3.27639 | 34988 ft | 409 kts | 158° |
| 2026-05-09 06:40 | 47.23659 | 3.30880 | 34998 ft | 410 kts | 158° |
| 2026-05-09 06:40 | 47.18388 | 3.34125 | 35002 ft | 411 kts | 158° |
| 2026-05-09 06:41 | 47.13115 | 3.37361 | 34999 ft | 411 kts | 158° |
| 2026-05-09 06:41 | 47.07846 | 3.40589 | 35003 ft | 412 kts | 159° |
| 2026-05-09 06:42 | 47.02559 | 3.43821 | 35002 ft | 412 kts | 159° |
| 2026-05-09 06:42 | 46.97251 | 3.47060 | 35003 ft | 413 kts | 159° |
| 2026-05-09 06:43 | 46.91939 | 3.50293 | 34999 ft | 413 kts | 159° |
| 2026-05-09 06:43 | 46.86623 | 3.53524 | 34997 ft | 414 kts | 159° |
| 2026-05-09 06:44 | 46.81317 | 3.56739 | 34991 ft | 415 kts | 160° |
| 2026-05-09 06:44 | 46.75970 | 3.59973 | 34998 ft | 417 kts | 160° |
| 2026-05-09 06:45 | 46.70866 | 3.64015 | 35002 ft | 423 kts | 144° |
| 2026-05-09 06:45 | 46.66959 | 3.70516 | 35001 ft | 433 kts | 123° |
| 2026-05-09 06:46 | 46.64810 | 3.78741 | 35002 ft | 441 kts | 102° |
| 2026-05-09 06:46 | 46.64687 | 3.87679 | 35012 ft | 445 kts | 86° |
| 2026-05-09 06:47 | 46.64439 | 3.96633 | 35005 ft | 442 kts | 99° |
| 2026-05-09 06:47 | 46.63436 | 4.05369 | 35014 ft | 440 kts | 106° |
| 2026-05-09 06:48 | 46.61971 | 4.14018 | 35009 ft | 440 kts | 107° |
| 2026-05-09 06:48 | 46.60461 | 4.22653 | 35012 ft | 440 kts | 107° |
| 2026-05-09 06:49 | 46.58944 | 4.31278 | 35009 ft | 440 kts | 107° |
| 2026-05-09 06:49 | 46.57418 | 4.39913 | 35015 ft | 441 kts | 107° |
| 2026-05-09 06:50 | 46.55886 | 4.48550 | 35017 ft | 441 kts | 107° |
| 2026-05-09 06:50 | 46.54357 | 4.57124 | 35024 ft | 442 kts | 107° |
| 2026-05-09 06:51 | 46.52808 | 4.65777 | 35014 ft | 443 kts | 107° |
| 2026-05-09 06:51 | 46.51250 | 4.74435 | 35027 ft | 444 kts | 107° |
| 2026-05-09 06:52 | 46.49680 | 4.83116 | 35021 ft | 444 kts | 107° |
| 2026-05-09 06:52 | 46.48103 | 4.91800 | 35028 ft | 446 kts | 107° |
| 2026-05-09 06:53 | 46.46515 | 5.00493 | 35035 ft | 446 kts | 107° |
| 2026-05-09 06:53 | 46.44919 | 5.09197 | 35022 ft | 446 kts | 107° |
| 2026-05-09 06:54 | 46.43326 | 5.17858 | 35027 ft | 447 kts | 107° |
| 2026-05-09 06:54 | 46.41718 | 5.26562 | 35036 ft | 448 kts | 107° |
| 2026-05-09 06:55 | 46.40098 | 5.35288 | 35033 ft | 448 kts | 107° |
| 2026-05-09 06:55 | 46.38471 | 5.44026 | 35036 ft | 450 kts | 107° |
| 2026-05-09 06:56 | 46.36841 | 5.52789 | 35040 ft | 451 kts | 107° |
| 2026-05-09 06:56 | 46.35202 | 5.61557 | 35051 ft | 453 kts | 107° |
| 2026-05-09 06:57 | 46.33550 | 5.70360 | 35044 ft | 452 kts | 108° |
| 2026-05-09 06:57 | 46.31899 | 5.79108 | 35063 ft | 454 kts | 108° |
| 2026-05-09 06:58 | 46.30231 | 5.87909 | 35056 ft | 454 kts | 108° |
| 2026-05-09 06:58 | 46.28553 | 5.96724 | 35071 ft | 455 kts | 108° |
| 2026-05-09 06:59 | 46.26864 | 6.05554 | 35067 ft | 455 kts | 108° |
| 2026-05-09 06:59 | 46.24557 | 6.13999 | 35067 ft | 450 kts | 124° |
| 2026-05-09 07:00 | 46.20574 | 6.20794 | 35071 ft | 441 kts | 143° |
| 2026-05-09 07:00 | 46.15837 | 6.26309 | 35067 ft | 440 kts | 147° |
| 2026-05-09 07:01 | 46.11214 | 6.32211 | 35067 ft | 445 kts | 142° |
| 2026-05-09 07:01 | 46.06651 | 6.38290 | 35053 ft | 448 kts | 142° |
| 2026-05-09 07:02 | 46.02838 | 6.43367 | 35069 ft | 450 kts | 142° |
| 2026-05-09 07:02 | 45.98229 | 6.49486 | 35064 ft | 453 kts | 143° |
| 2026-05-09 07:03 | 45.93584 | 6.55640 | 35056 ft | 454 kts | 143° |
| 2026-05-09 07:03 | 45.88926 | 6.61794 | 35012 ft | 457 kts | 143° |
| 2026-05-09 07:04 | 45.84250 | 6.67957 | 35071 ft | 456 kts | 143° |
| 2026-05-09 07:04 | 45.79555 | 6.74120 | 35066 ft | 458 kts | 144° |
| 2026-05-09 07:05 | 45.74837 | 6.80280 | 35096 ft | 459 kts | 144° |
| 2026-05-09 07:05 | 45.70133 | 6.86408 | 35085 ft | 461 kts | 144° |
| 2026-05-09 07:06 | 45.65383 | 6.92582 | 35096 ft | 462 kts | 144° |
| 2026-05-09 07:06 | 45.60601 | 6.98779 | 35129 ft | 464 kts | 144° |
| 2026-05-09 07:07 | 45.55805 | 7.04980 | 35117 ft | 464 kts | 146° |
| 2026-05-09 07:07 | 45.51009 | 7.11190 | 35096 ft | 467 kts | 145° |
| 2026-05-09 07:08 | 45.46214 | 7.17421 | 35121 ft | 467 kts | 145° |
| 2026-05-09 07:08 | 45.41403 | 7.23658 | 35124 ft | 467 kts | 146° |
| 2026-05-09 07:09 | 45.36612 | 7.29855 | 35158 ft | 468 kts | 146° |
| 2026-05-09 07:09 | 45.31793 | 7.36074 | 35155 ft | 468 kts | 146° |
| 2026-05-09 07:10 | 45.29364 | 7.39200 | 34794 ft | 471 kts | 146° |
| 2026-05-09 07:10 | 45.26950 | 7.42308 | 34253 ft | 469 kts | 146° |
| 2026-05-09 07:10 | 45.24525 | 7.45423 | 33700 ft | 470 kts | 146° |
| 2026-05-09 07:10 | 45.22101 | 7.48530 | 33182 ft | 467 kts | 146° |
| 2026-05-09 07:11 | 45.19688 | 7.51624 | 32725 ft | 470 kts | 146° |
| 2026-05-09 07:11 | 45.17255 | 7.54737 | 32270 ft | 471 kts | 145° |
| 2026-05-09 07:11 | 45.14823 | 7.57848 | 31787 ft | 472 kts | 145° |
| 2026-05-09 07:11 | 45.12385 | 7.60962 | 31267 ft | 471 kts | 144° |
| 2026-05-09 07:12 | 45.09944 | 7.64075 | 30660 ft | 471 kts | 144° |
| 2026-05-09 07:12 | 45.07510 | 7.67177 | 30040 ft | 471 kts | 144° |
| 2026-05-09 07:12 | 45.05083 | 7.70267 | 29345 ft | 470 kts | 144° |
| 2026-05-09 07:12 | 45.02657 | 7.73352 | 28667 ft | 466 kts | 144° |
| 2026-05-09 07:13 | 45.00257 | 7.76400 | 28010 ft | 460 kts | 143° |
| 2026-05-09 07:13 | 44.97920 | 7.79362 | 27383 ft | 455 kts | 143° |
| 2026-05-09 07:13 | 44.95586 | 7.82321 | 26777 ft | 449 kts | 143° |
| 2026-05-09 07:13 | 44.93454 | 7.85549 | 26171 ft | 451 kts | 133° |
| 2026-05-09 07:14 | 44.91709 | 7.89249 | 25583 ft | 452 kts | 122° |
| 2026-05-09 07:14 | 44.90421 | 7.93274 | 25006 ft | 451 kts | 111° |
| 2026-05-09 07:14 | 44.89616 | 7.97532 | 24438 ft | 448 kts | 101° |
| 2026-05-09 07:14 | 44.89315 | 8.01882 | 23914 ft | 444 kts | 90° |
| 2026-05-09 07:15 | 44.89523 | 8.06194 | 23317 ft | 438 kts | 80° |
| 2026-05-09 07:15 | 44.90226 | 8.10339 | 22702 ft | 431 kts | 69° |
| 2026-05-09 07:15 | 44.91301 | 8.14261 | 22117 ft | 425 kts | 65° |
| 2026-05-09 07:15 | 44.92454 | 8.18060 | 21532 ft | 413 kts | 67° |
| 2026-05-09 07:16 | 44.93246 | 8.21823 | 20963 ft | 389 kts | 77° |
| 2026-05-09 07:16 | 44.93730 | 8.25500 | 20446 ft | 377 kts | 79° |
| 2026-05-09 07:16 | 44.94201 | 8.29057 | 19963 ft | 369 kts | 76° |
| 2026-05-09 07:16 | 44.94800 | 8.32533 | 19485 ft | 363 kts | 75° |
| 2026-05-09 07:17 | 44.95407 | 8.35969 | 19032 ft | 354 kts | 75° |
| 2026-05-09 07:17 | 44.95996 | 8.39265 | 18575 ft | 335 kts | 75° |
| 2026-05-09 07:17 | 44.96563 | 8.42433 | 18112 ft | 330 kts | 75° |
| 2026-05-09 07:17 | 44.97118 | 8.45551 | 17374 ft | 324 kts | 75° |
| 2026-05-09 07:18 | 44.97663 | 8.48607 | 16519 ft | 318 kts | 76° |
| 2026-05-09 07:18 | 44.98195 | 8.51606 | 15718 ft | 311 kts | 76° |
| 2026-05-09 07:18 | 44.98708 | 8.54510 | 14945 ft | 304 kts | 76° |
| 2026-05-09 07:18 | 44.99215 | 8.57379 | 14211 ft | 298 kts | 76° |
| 2026-05-09 07:19 | 44.99712 | 8.60193 | 13418 ft | 292 kts | 76° |
| 2026-05-09 07:19 | 45.00190 | 8.62913 | 12859 ft | 279 kts | 76° |
| 2026-05-09 07:19 | 45.00650 | 8.65519 | 12320 ft | 268 kts | 76° |
| 2026-05-09 07:19 | 45.01091 | 8.68029 | 11751 ft | 260 kts | 76° |
| 2026-05-09 07:20 | 45.01522 | 8.70485 | 11157 ft | 255 kts | 76° |
| 2026-05-09 07:20 | 45.01968 | 8.72898 | 10555 ft | 252 kts | 76° |
| 2026-05-09 07:20 | 45.02354 | 8.75300 | 9949 ft | 248 kts | 79° |
| 2026-05-09 07:20 | 45.02683 | 8.77674 | 9302 ft | 246 kts | 79° |
| 2026-05-09 07:21 | 45.03004 | 8.80035 | 8665 ft | 243 kts | 79° |
| 2026-05-09 07:21 | 45.03325 | 8.82376 | 8041 ft | 241 kts | 79° |
| 2026-05-09 07:21 | 45.03641 | 8.84689 | 7453 ft | 238 kts | 79° |
| 2026-05-09 07:21 | 45.04072 | 8.86927 | 6851 ft | 237 kts | 66° |
| 2026-05-09 07:22 | 45.04986 | 8.88903 | 6378 ft | 242 kts | 43° |
| 2026-05-09 07:22 | 45.06453 | 8.89983 | 5895 ft | 240 kts | 8° |
| 2026-05-09 07:22 | 45.08048 | 8.89709 | 5467 ft | 233 kts | 333° |
| 2026-05-09 07:22 | 45.09446 | 8.88513 | 5084 ft | 238 kts | 327° |
| 2026-05-09 07:23 | 45.10910 | 8.87381 | 4710 ft | 242 kts | 338° |
| 2026-05-09 07:23 | 45.12491 | 8.86706 | 4371 ft | 232 kts | 347° |
| 2026-05-09 07:23 | 45.14039 | 8.86231 | 4153 ft | 223 kts | 348° |
| 2026-05-09 07:23 | 45.15557 | 8.85813 | 4095 ft | 222 kts | 349° |
| 2026-05-09 07:24 | 45.17080 | 8.85404 | 4101 ft | 223 kts | 349° |
| 2026-05-09 07:24 | 45.18607 | 8.84991 | 4045 ft | 221 kts | 349° |
| 2026-05-09 07:24 | 45.20089 | 8.84589 | 4002 ft | 214 kts | 349° |
| 2026-05-09 07:24 | 45.21543 | 8.84195 | 3998 ft | 212 kts | 349° |
| 2026-05-09 07:25 | 45.22995 | 8.83799 | 3987 ft | 213 kts | 349° |
| 2026-05-09 07:25 | 45.24454 | 8.83402 | 3978 ft | 213 kts | 349° |
| 2026-05-09 07:25 | 45.25907 | 8.83006 | 3981 ft | 213 kts | 349° |
| 2026-05-09 07:25 | 45.27364 | 8.82607 | 3974 ft | 213 kts | 349° |
| 2026-05-09 07:26 | 45.28803 | 8.82218 | 3981 ft | 213 kts | 349° |
| 2026-05-09 07:26 | 45.30258 | 8.81822 | 3984 ft | 213 kts | 349° |
| 2026-05-09 07:26 | 45.31719 | 8.81424 | 3992 ft | 213 kts | 349° |
| 2026-05-09 07:26 | 45.33157 | 8.81033 | 3969 ft | 205 kts | 349° |
| 2026-05-09 07:27 | 45.34545 | 8.80656 | 3969 ft | 202 kts | 349° |
| 2026-05-09 07:27 | 45.35931 | 8.80317 | 3915 ft | 203 kts | 353° |
| 2026-05-09 07:27 | 45.37336 | 8.80391 | 3788 ft | 202 kts | 4° |
| 2026-05-09 07:27 | 45.38700 | 8.80123 | 3662 ft | 201 kts | 345° |
| 2026-05-09 07:28 | 45.40061 | 8.79646 | 3552 ft | 201 kts | 349° |
| 2026-05-09 07:28 | 45.41436 | 8.79311 | 3444 ft | 199 kts | 350° |
| 2026-05-09 07:28 | 45.42763 | 8.78946 | 3339 ft | 189 kts | 348° |
| 2026-05-09 07:28 | 45.44047 | 8.78582 | 3204 ft | 187 kts | 349° |
| 2026-05-09 07:29 | 45.45290 | 8.78246 | 3110 ft | 187 kts | 349° |
| 2026-05-09 07:29 | 45.46570 | 8.77893 | 3053 ft | 188 kts | 348° |
| 2026-05-09 07:29 | 45.47857 | 8.77534 | 3019 ft | 188 kts | 349° |
| 2026-05-09 07:29 | 45.49137 | 8.77186 | 2992 ft | 181 kts | 349° |
| 2026-05-09 07:30 | 45.50291 | 8.76867 | 2958 ft | 161 kts | 348° |
| 2026-05-09 07:30 | 45.51370 | 8.76568 | 2736 ft | 152 kts | 349° |
| 2026-05-09 07:30 | 45.52368 | 8.76294 | 2524 ft | 143 kts | 349° |
| 2026-05-09 07:30 | 45.53333 | 8.76027 | 2348 ft | 138 kts | 349° |
| 2026-05-09 07:31 | 45.54267 | 8.75770 | 2204 ft | 139 kts | 349° |
| 2026-05-09 07:31 | 45.55215 | 8.75508 | 2036 ft | 139 kts | 349° |
| 2026-05-09 07:31 | 45.56162 | 8.75246 | 1851 ft | 137 kts | 349° |
| 2026-05-09 07:31 | 45.57100 | 8.74982 | 1685 ft | 137 kts | 349° |
| 2026-05-09 07:32 | 45.58042 | 8.74730 | 1492 ft | 138 kts | 349° |
| 2026-05-09 07:32 | 45.58970 | 8.74472 | 1286 ft | 135 kts | 348° |
| 2026-05-09 07:32 | 45.59888 | 8.74207 | 1094 ft | 134 kts | 349° |
| 2026-05-09 07:32 | 45.60805 | 8.73971 | 896 ft | 132 kts | 349° |
| 2026-05-09 07:33 | 45.61688 | 8.73717 | 727 ft | 124 kts | 349° |
| 2026-05-09 07:33 | 45.62988 | 8.73362 | 725 ft | 67 kts | 349° |
| 2026-05-09 07:33 | 45.63373 | 8.73255 | 733 ft | 47 kts | 349° |
| 2026-05-09 07:34 | 45.63628 | 8.73156 | 742 ft | 35 kts | 333° |
| 2026-05-09 07:34 | 45.63783 | 8.72981 | 744 ft | 16 kts | 310° |
| 2026-05-09 07:34 | 45.63803 | 8.72945 | 744 ft | 2 kts | 306° |
| 2026-05-09 07:34 | 45.63830 | 8.72885 | 745 ft | 12 kts | 302° |
| 2026-05-09 07:35 | 45.63866 | 8.72808 | 747 ft | 7 kts | 303° |
| 2026-05-09 07:35 | 45.63892 | 8.72753 | 747 ft | 7 kts | 305° |
| 2026-05-09 07:35 | 45.63917 | 8.72704 | 749 ft | 5 kts | 305° |
| 2026-05-09 07:35 | 45.63932 | 8.72654 | 749 ft | 6 kts | 269° |
| 2026-05-09 07:36 | 45.63909 | 8.72598 | 746 ft | 8 kts | 212° |
| 2026-05-09 07:36 | 45.63840 | 8.72596 | 747 ft | 13 kts | 171° |
| 2026-05-09 07:36 | 45.63738 | 8.72625 | 746 ft | 17 kts | 169° |
| 2026-05-09 07:36 | 45.63603 | 8.72662 | 744 ft | 22 kts | 169° |
| 2026-05-09 07:37 | 45.63473 | 8.72698 | 740 ft | 12 kts | 172° |
| 2026-05-09 07:37 | 45.63414 | 8.72651 | 742 ft | 10 kts | 248° |
| 2026-05-09 07:37 | 45.63398 | 8.72543 | 743 ft | 12 kts | 259° |
| 2026-05-09 07:37 | 45.63380 | 8.72415 | 744 ft | 14 kts | 259° |
| 2026-05-09 07:38 | 45.63365 | 8.72303 | 744 ft | 10 kts | 259° |
| 2026-05-09 07:38 | 45.63349 | 8.72189 | 745 ft | 13 kts | 258° |
| 2026-05-09 07:38 | 45.63331 | 8.72054 | 743 ft | 15 kts | 260° |
| 2026-05-09 07:38 | 45.63319 | 8.71956 | 745 ft | 11 kts | 259° |
| 2026-05-09 07:39 | 45.63299 | 8.71864 | 742 ft | 7 kts | 214° |
| 2026-05-09 07:39 | 45.63239 | 8.71870 | 743 ft | 11 kts | 170° |
| 2026-05-09 07:39 | 45.63148 | 8.71895 | 741 ft | 14 kts | 168° |
| 2026-05-09 07:39 | 45.63071 | 8.71916 | 737 ft | 11 kts | 169° |
| 2026-05-09 07:40 | 45.62996 | 8.71915 | 738 ft | 11 kts | 223° |
| 2026-05-09 07:40 | 45.62974 | 8.71802 | 737 ft | 10 kts | 256° |
| 2026-05-09 07:40 | 45.62927 | 8.71756 | 736 ft | 11 kts | 169° |
| 2026-05-09 07:40 | 45.62857 | 8.71775 | 735 ft | 8 kts | 176° |
| 2026-05-09 07:41 | 45.62832 | 8.71731 | 734 ft | 6 kts | 259° |
| 2026-05-09 07:41 | 45.62829 | 8.71705 | 734 ft | 2 kts | 256° |
| 2026-05-09 07:41 | 45.62822 | 8.71679 | 733 ft | 3 kts | 246° |
| 2026-05-09 07:41 | 45.62818 | 8.71657 | 734 ft | 1 kts | 259° |
| 2026-05-09 07:42 | 45.62816 | 8.71648 | 734 ft | 0 kts | 254° |